Time;durP1;ratioP1;P1;durP2;ratioP2;P2;SDS_P1;SDS_P2;PMS_P1;PMS_P2;Temp;Humidity;BMP_temperature;BMP_pressure;BME280_temperature;BME280_humidity;BME280_pressure;Samples;Min_cycle;Max_cycle;Signal;HPM_P1;HPM_P2
2021/09/08 00:02:02;;;;;;;8.60;6.37;;;11.10;99.90;;;;;;6155026;28;1264608;-70
2021/09/08 00:05:10;;;;;;;6.97;5.93;;;11.10;99.90;;;;;;6199524;28;20688;-70
2021/09/08 00:08:13;;;;;;;12.67;6.53;;;11.10;99.90;;;;;;6199283;28;20209;-70
2021/09/08 00:11:15;;;;;;;6.53;5.63;;;11.00;99.90;;;;;;6199366;28;20327;-69
2021/09/08 00:14:17;;;;;;;6.50;5.77;;;11.00;99.90;;;;;;6185641;28;20209;-69
2021/09/08 00:17:21;;;;;;;7.10;6.40;;;11.00;99.90;;;;;;6222456;28;20189;-70
2021/09/08 00:20:23;;;;;;;9.20;6.23;;;10.90;99.90;;;;;;6199314;28;20321;-69
2021/09/08 00:23:26;;;;;;;7.97;6.17;;;10.90;99.90;;;;;;6197807;28;20683;-69
2021/09/08 00:26:28;;;;;;;7.23;6.10;;;10.90;99.90;;;;;;6198961;28;20277;-70
2021/09/08 00:29:30;;;;;;;7.13;5.57;;;10.90;99.90;;;;;;6198970;28;20194;-70
2021/09/08 00:32:34;;;;;;;7.53;5.80;;;10.90;99.90;;;;;;6198914;28;20550;-70
2021/09/08 00:35:38;;;;;;;9.00;6.50;;;10.90;99.90;;;;;;6184252;28;20645;-69
2021/09/08 00:38:41;;;;;;;7.20;6.07;;;10.80;99.90;;;;;;6198685;28;20181;-70
2021/09/08 00:41:43;;;;;;;8.17;6.73;;;10.80;99.90;;;;;;6181256;28;20209;-69
2021/09/08 00:44:46;;;;;;;9.37;6.33;;;10.80;99.90;;;;;;6198739;28;20193;-70
2021/09/08 00:47:48;;;;;;;11.37;6.63;;;10.80;99.90;;;;;;6213472;28;20213;-70
2021/09/08 00:50:51;;;;;;;8.43;6.20;;;10.80;99.90;;;;;;6197101;28;20344;-70
2021/09/08 00:53:55;;;;;;;8.40;6.67;;;10.80;99.90;;;;;;6213344;28;20211;-70
2021/09/08 00:57:01;;;;;;;10.13;6.83;;;10.80;99.90;;;;;;6213413;28;20209;-70
2021/09/08 01:00:05;;;;;;;10.47;6.27;;;10.80;99.90;;;;;;6198086;28;20236;-70
2021/09/08 01:03:09;;;;;;;8.17;6.00;;;10.80;99.90;;;;;;6196883;28;20267;-70
2021/09/08 01:06:15;;;;;;;6.50;5.57;;;10.70;99.90;;;;;;6197270;28;20545;-70
2021/09/08 01:09:19;;;;;;;9.17;5.90;;;10.70;99.90;;;;;;6196837;28;20209;-70
2021/09/08 01:12:22;;;;;;;8.37;5.63;;;10.70;99.90;;;;;;6197930;28;20691;-70
2021/09/08 01:15:25;;;;;;;6.43;5.60;;;10.70;99.90;;;;;;6209478;28;20189;-70
2021/09/08 01:18:29;;;;;;;7.97;6.00;;;10.70;99.90;;;;;;6200080;28;20300;-71
2021/09/08 01:21:31;;;;;;;7.57;4.97;;;10.60;99.90;;;;;;6197816;28;20199;-70
2021/09/08 01:24:34;;;;;;;6.30;5.30;;;10.60;99.90;;;;;;6198091;28;20205;-71
2021/09/08 01:27:36;;;;;;;6.63;5.27;;;10.60;99.90;;;;;;6197727;28;20197;-70
2021/09/08 01:30:42;;;;;;;6.90;5.50;;;10.50;99.90;;;;;;6196190;28;20378;-70
2021/09/08 01:33:44;;;;;;;9.20;5.50;;;10.50;99.90;;;;;;6197485;28;20202;-70
2021/09/08 01:36:47;;;;;;;7.00;5.57;;;10.50;99.90;;;;;;6197419;28;20602;-70
2021/09/08 01:39:49;;;;;;;6.27;5.40;;;10.40;99.90;;;;;;6196619;28;20288;-70
2021/09/08 01:42:51;;;;;;;6.40;5.73;;;10.40;99.90;;;;;;6196090;28;20197;-70
2021/09/08 01:45:53;;;;;;;6.00;4.90;;;10.40;99.90;;;;;;6197016;28;20201;-70
2021/09/08 01:48:55;;;;;;;7.43;5.47;;;10.40;99.90;;;;;;6195472;28;20208;-70
2021/09/08 01:51:58;;;;;;;7.30;5.90;;;10.30;99.90;;;;;;6197325;28;20619;-70
2021/09/08 01:55:00;;;;;;;7.03;5.43;;;10.30;99.90;;;;;;6197076;28;20240;-70
2021/09/08 01:58:02;;;;;;;6.80;5.50;;;10.30;99.90;;;;;;6195526;28;20193;-70
2021/09/08 02:01:05;;;;;;;8.30;5.80;;;10.30;99.90;;;;;;6179145;28;20249;-70
2021/09/08 02:04:11;;;;;;;8.70;5.97;;;10.20;99.90;;;;;;6196865;28;20201;-70
2021/09/08 02:07:13;;;;;;;7.63;5.53;;;10.20;99.90;;;;;;6195591;28;20691;-70
2021/09/08 02:10:15;;;;;;;7.27;5.67;;;10.20;99.90;;;;;;6196634;28;20208;-70
2021/09/08 02:13:19;;;;;;;7.53;5.97;;;10.10;99.90;;;;;;6178961;28;20249;-70
2021/09/08 02:16:21;;;;;;;6.87;5.50;;;10.10;99.90;;;;;;6196593;28;20193;-70
2021/09/08 02:19:24;;;;;;;7.27;5.83;;;10.10;99.90;;;;;;6211560;28;20201;-70
2021/09/08 02:22:26;;;;;;;8.27;5.67;;;10.10;99.90;;;;;;6195079;28;20200;-70
2021/09/08 02:25:28;;;;;;;7.30;5.20;;;10.10;99.90;;;;;;6196244;28;20193;-70
2021/09/08 02:28:30;;;;;;;7.53;5.50;;;10.10;99.90;;;;;;6195002;28;20778;-70
2021/09/08 02:31:33;;;;;;;8.47;6.17;;;10.10;99.90;;;;;;6211395;28;20205;-70
2021/09/08 02:34:35;;;;;;;6.87;5.80;;;10.10;99.90;;;;;;6197720;28;20296;-70
2021/09/08 02:37:38;;;;;;;6.60;4.90;;;10.00;99.90;;;;;;6186634;28;20208;-71
2021/09/08 02:40:40;;;;;;;8.83;5.80;;;10.00;99.90;;;;;;6188727;28;20253;-70
2021/09/08 02:43:42;;;;;;;8.13;5.40;;;10.00;99.90;;;;;;6195851;28;20193;-70
2021/09/08 02:46:45;;;;;;;8.63;6.67;;;10.00;99.90;;;;;;6196276;28;20194;-70
2021/09/08 02:49:47;;;;;;;6.27;5.47;;;10.00;99.90;;;;;;6194419;28;20189;-70
2021/09/08 02:52:49;;;;;;;9.10;5.83;;;10.00;99.90;;;;;;6210837;28;20284;-70
2021/09/08 02:55:52;;;;;;;8.20;6.53;;;10.00;99.90;;;;;;6195697;28;20196;-70
2021/09/08 02:58:54;;;;;;;8.03;6.03;;;10.00;99.90;;;;;;6210564;28;20200;-71
2021/09/08 03:01:56;;;;;;;8.30;6.30;;;9.90;99.90;;;;;;6210661;28;20383;-70
2021/09/08 03:04:59;;;;;;;7.33;6.13;;;10.00;99.90;;;;;;6194833;28;20560;-70
2021/09/08 03:08:01;;;;;;;8.50;5.93;;;9.90;99.90;;;;;;6194311;28;20205;-70
2021/09/08 03:11:03;;;;;;;6.27;5.63;;;10.00;99.90;;;;;;6195672;28;20228;-71
2021/09/08 03:14:06;;;;;;;10.00;6.53;;;10.00;99.90;;;;;;6212612;28;20236;-70
2021/09/08 03:17:08;;;;;;;8.57;6.10;;;9.90;99.90;;;;;;6214442;28;20268;-70
2021/09/08 03:20:10;;;;;;;8.70;5.77;;;10.00;99.90;;;;;;6194174;28;20204;-70
2021/09/08 03:23:13;;;;;;;8.30;6.60;;;9.90;99.90;;;;;;6210539;28;20275;-70
2021/09/08 03:26:15;;;;;;;8.83;6.50;;;9.90;99.90;;;;;;6194162;28;20554;-70
2021/09/08 03:29:18;;;;;;;10.97;6.17;;;9.90;99.90;;;;;;6195301;28;20201;-70
2021/09/08 03:32:20;;;;;;;7.63;6.40;;;9.90;99.90;;;;;;6194047;28;20197;-70
2021/09/08 03:35:22;;;;;;;8.50;6.83;;;9.90;99.90;;;;;;6194956;28;20287;-70
2021/09/08 03:38:24;;;;;;;6.90;5.70;;;9.90;99.90;;;;;;6195267;28;20793;-70
2021/09/08 03:41:26;;;;;;;6.87;6.17;;;9.90;99.90;;;;;;6195022;28;20193;-70
2021/09/08 03:44:29;;;;;;;8.10;6.33;;;9.90;99.90;;;;;;6210120;28;20197;-70
2021/09/08 03:47:31;;;;;;;8.30;5.90;;;9.80;99.90;;;;;;6194245;28;20273;-71
2021/09/08 03:50:33;;;;;;;7.63;6.00;;;9.80;99.90;;;;;;6195006;28;20616;-70
2021/09/08 03:53:35;;;;;;;6.97;6.27;;;9.80;99.90;;;;;;6194949;28;20300;-70
2021/09/08 03:56:38;;;;;;;7.27;5.77;;;9.80;99.90;;;;;;6193813;28;20186;-70
2021/09/08 03:59:40;;;;;;;8.50;5.87;;;9.70;99.90;;;;;;6194891;28;20311;-71
2021/09/08 04:02:42;;;;;;;7.87;6.70;;;9.70;99.90;;;;;;6194675;28;20257;-70
2021/09/08 04:05:45;;;;;;;7.57;6.30;;;9.70;99.90;;;;;;6194831;28;20195;-70
2021/09/08 04:08:47;;;;;;;9.77;5.90;;;9.70;99.90;;;;;;6194934;28;20283;-70
2021/09/08 04:11:49;;;;;;;8.77;5.93;;;9.70;99.90;;;;;;6198292;28;20285;-70
2021/09/08 04:14:53;;;;;;;6.93;5.87;;;9.60;99.90;;;;;;6206648;28;20754;-70
2021/09/08 04:17:55;;;;;;;7.00;6.30;;;9.70;99.90;;;;;;6200393;28;20287;-70
2021/09/08 04:20:58;;;;;;;7.80;5.37;;;9.60;99.90;;;;;;6214046;28;20312;-70
2021/09/08 04:24:00;;;;;;;8.50;6.33;;;9.60;99.90;;;;;;6199227;28;20205;-70
2021/09/08 04:27:03;;;;;;;8.50;5.67;;;9.60;99.90;;;;;;6199004;28;20312;-70
2021/09/08 04:30:06;;;;;;;11.27;6.90;;;9.60;99.90;;;;;;6197810;28;20277;-70
2021/09/08 04:33:08;;;;;;;9.97;5.73;;;9.60;99.90;;;;;;6213604;28;20298;-70
2021/09/08 04:36:11;;;;;;;7.37;6.10;;;9.60;99.90;;;;;;6197668;28;20188;-70
2021/09/08 04:39:13;;;;;;;8.77;6.37;;;9.60;99.90;;;;;;6198816;28;20235;-71
2021/09/08 04:42:15;;;;;;;8.77;5.93;;;9.60;99.90;;;;;;6198712;28;20602;-70
2021/09/08 04:45:17;;;;;;;7.03;5.97;;;9.60;99.90;;;;;;6197252;28;20205;-71
2021/09/08 04:48:20;;;;;;;7.33;6.13;;;9.60;99.90;;;;;;6197941;28;20236;-70
2021/09/08 04:51:22;;;;;;;7.90;6.37;;;9.60;99.90;;;;;;6198037;28;20195;-70
2021/09/08 04:54:24;;;;;;;8.23;5.93;;;9.60;99.90;;;;;;6213022;28;20239;-70
2021/09/08 04:57:26;;;;;;;10.90;6.63;;;9.60;99.90;;;;;;6197789;28;20274;-70
2021/09/08 05:00:29;;;;;;;8.47;6.50;;;9.60;99.90;;;;;;6212521;28;20367;-70
2021/09/08 05:03:32;;;;;;;7.73;5.90;;;9.60;99.90;;;;;;6197758;28;20677;-71
2021/09/08 05:06:35;;;;;;;8.67;6.50;;;9.60;99.90;;;;;;6197813;28;20207;-70
2021/09/08 05:09:37;;;;;;;9.53;6.67;;;9.60;99.90;;;;;;6197689;28;20195;-70
2021/09/08 05:12:39;;;;;;;7.80;6.03;;;9.70;99.90;;;;;;6188223;28;20451;-70
2021/09/08 05:15:42;;;;;;;7.57;6.10;;;9.70;99.90;;;;;;6204537;28;20207;-70
2021/09/08 05:18:44;;;;;;;7.57;6.30;;;9.70;99.90;;;;;;6182959;28;20447;-71
2021/09/08 05:21:46;;;;;;;9.87;6.77;;;9.80;99.90;;;;;;6182370;28;20474;-70
2021/09/08 05:24:48;;;;;;;8.20;6.70;;;9.80;99.90;;;;;;6197399;28;20336;-70
2021/09/08 05:27:51;;;;;;;8.40;6.07;;;9.90;99.90;;;;;;6197191;28;20670;-70
2021/09/08 05:30:53;;;;;;;8.33;6.33;;;9.90;99.90;;;;;;6197252;28;20200;-71
2021/09/08 05:33:55;;;;;;;8.00;6.07;;;9.90;99.90;;;;;;6196830;28;20585;-71
2021/09/08 05:36:58;;;;;;;6.60;5.90;;;10.00;99.90;;;;;;6197050;28;20681;-70
2021/09/08 05:40:00;;;;;;;9.03;6.40;;;10.00;99.90;;;;;;6195611;28;20201;-70
2021/09/08 05:43:02;;;;;;;8.13;5.50;;;10.00;99.90;;;;;;6196822;28;20244;-70
2021/09/08 05:46:05;;;;;;;9.47;6.97;;;10.10;99.90;;;;;;6195853;28;20192;-70
2021/09/08 05:49:07;;;;;;;7.90;6.20;;;10.10;99.90;;;;;;6196725;28;20194;-70
2021/09/08 05:52:09;;;;;;;9.97;6.83;;;10.20;99.90;;;;;;6196652;28;20534;-71
2021/09/08 05:55:11;;;;;;;8.97;7.13;;;10.20;99.90;;;;;;6196308;28;20219;-70
2021/09/08 05:58:14;;;;;;;8.97;6.63;;;10.30;99.90;;;;;;6196493;28;20214;-71
2021/09/08 06:01:16;;;;;;;9.33;7.40;;;10.30;99.90;;;;;;6196443;28;20259;-70
2021/09/08 06:04:19;;;;;;;9.27;6.90;;;10.40;99.90;;;;;;6195274;28;20746;-70
2021/09/08 06:07:21;;;;;;;11.77;7.37;;;10.40;99.90;;;;;;6187188;28;20276;-71
2021/09/08 06:10:23;;;;;;;9.87;7.47;;;10.50;99.90;;;;;;6182029;28;20197;-70
2021/09/08 06:13:25;;;;;;;9.30;7.03;;;10.60;99.90;;;;;;6196030;28;20598;-71
2021/09/08 06:16:27;;;;;;;9.73;7.20;;;10.60;99.90;;;;;;6213033;28;20185;-70
2021/09/08 06:19:30;;;;;;;8.60;7.70;;;10.70;99.90;;;;;;6194809;28;20204;-71
2021/09/08 06:22:32;;;;;;;8.87;7.20;;;10.70;99.90;;;;;;6211163;28;20185;-70
2021/09/08 06:25:34;;;;;;;11.03;7.90;;;10.80;99.90;;;;;;6195724;28;20288;-70
2021/09/08 06:28:37;;;;;;;11.83;7.97;;;10.90;99.90;;;;;;6194832;28;20201;-71
2021/09/08 06:31:39;;;;;;;10.33;7.77;;;11.00;99.90;;;;;;6195647;28;20201;-70
2021/09/08 06:34:45;;;;;;;10.27;8.17;;;11.10;99.90;;;;;;6196637;28;20228;-70
2021/09/08 06:37:47;;;;;;;8.60;7.03;;;11.10;99.90;;;;;;6195868;28;20190;-70
2021/09/08 06:40:51;;;;;;;10.10;8.23;;;11.20;99.90;;;;;;6210268;28;20577;-71
2021/09/08 06:43:54;;;;;;;10.10;7.73;;;11.30;99.90;;;;;;6195576;28;20248;-70
2021/09/08 06:46:56;;;;;;;11.23;7.50;;;11.40;99.90;;;;;;6194313;28;20195;-70
2021/09/08 06:49:58;;;;;;;8.70;7.57;;;11.50;99.90;;;;;;6196126;28;20193;-70
2021/09/08 06:53:01;;;;;;;8.60;7.17;;;11.60;99.90;;;;;;6195439;28;20198;-70
2021/09/08 06:56:04;;;;;;;9.97;7.47;;;11.70;99.90;;;;;;6195150;28;20213;-71
2021/09/08 06:59:07;;;;;;;9.33;7.80;;;11.80;99.90;;;;;;6195073;28;20223;-70
2021/09/08 07:02:10;;;;;;;11.80;8.43;;;11.90;99.90;;;;;;6194950;28;20229;-70
2021/09/08 07:05:13;;;;;;;9.23;7.40;;;12.00;99.90;;;;;;6195395;28;20219;-70
2021/09/08 07:08:16;;;;;;;8.83;7.37;;;12.20;99.90;;;;;;6195450;28;20193;-70
2021/09/08 07:11:20;;;;;;;8.30;7.27;;;12.30;99.90;;;;;;6194975;28;20206;-70
2021/09/08 07:14:23;;;;;;;9.67;7.17;;;12.40;99.90;;;;;;6200063;28;20201;-71
2021/09/08 07:17:25;;;;;;;8.07;6.93;;;12.60;99.90;;;;;;6194496;28;20651;-70
2021/09/08 07:20:28;;;;;;;10.00;7.77;;;12.70;99.90;;;;;;6195041;28;20188;-71
2021/09/08 07:23:30;;;;;;;8.67;6.70;;;12.90;99.90;;;;;;6194846;28;20220;-70
2021/09/08 07:26:33;;;;;;;8.83;7.07;;;13.10;99.90;;;;;;6193788;28;20187;-71
2021/09/08 07:29:36;;;;;;;8.00;6.70;;;13.40;99.90;;;;;;6195332;28;20201;-70
2021/09/08 07:32:38;;;;;;;8.00;6.50;;;13.70;99.90;;;;;;6193410;28;20194;-70
2021/09/08 07:35:40;;;;;;;7.43;5.83;;;14.00;99.90;;;;;;6193526;28;20213;-71
2021/09/08 07:38:43;;;;;;;10.17;6.90;;;14.40;99.90;;;;;;6194735;28;20189;-70
2021/09/08 07:41:45;;;;;;;6.50;5.80;;;14.70;99.90;;;;;;6194907;28;20190;-71
2021/09/08 07:44:47;;;;;;;8.70;6.43;;;15.00;99.90;;;;;;6195322;28;20217;-71
2021/09/08 07:47:50;;;;;;;7.50;6.37;;;15.30;99.90;;;;;;6199419;28;20726;-71
2021/09/08 07:50:52;;;;;;;7.60;5.67;;;15.60;99.90;;;;;;6182059;28;20418;-71
2021/09/08 07:53:55;;;;;;;6.20;5.60;;;16.00;99.90;;;;;;6199632;28;20996;-71
2021/09/08 07:56:58;;;;;;;6.67;5.60;;;16.30;99.90;;;;;;6199474;28;20276;-71
2021/09/08 08:00:00;;;;;;;6.17;5.47;;;16.60;99.90;;;;;;6208425;28;20718;-71
2021/09/08 08:03:08;;;;;;;7.97;6.30;;;17.00;99.90;;;;;;6197781;28;20221;-70
2021/09/08 08:06:11;;;;;;;7.23;5.07;;;17.50;99.90;;;;;;6198094;28;20723;-71
2021/09/08 08:09:13;;;;;;;6.37;5.50;;;17.70;99.90;;;;;;6197922;28;20205;-71
2021/09/08 08:12:15;;;;;;;8.00;5.30;;;18.10;99.90;;;;;;6199063;28;20204;-70
2021/09/08 08:15:18;;;;;;;10.10;5.50;;;18.50;99.90;;;;;;6225550;28;20225;-70
2021/09/08 08:18:21;;;;;;;8.47;5.43;;;18.80;99.90;;;;;;6207464;28;20202;-70
2021/09/08 08:21:23;;;;;;;8.07;5.10;;;19.10;99.90;;;;;;6198950;28;20336;-70
2021/09/08 08:24:25;;;;;;;8.23;5.30;;;19.50;99.90;;;;;;6198625;28;20278;-70
2021/09/08 08:27:27;;;;;;;7.30;5.20;;;19.70;99.90;;;;;;6198796;28;20197;-70
2021/09/08 08:30:31;;;;;;;8.77;5.87;;;19.90;99.90;;;;;;6197277;28;20332;-70
2021/09/08 08:33:33;;;;;;;6.20;5.33;;;20.10;99.90;;;;;;6198548;28;20197;-70
2021/09/08 08:36:37;;;;;;;5.57;4.83;;;20.20;99.90;;;;;;6198440;28;20271;-70
2021/09/08 08:39:39;;;;;;;5.90;5.00;;;20.50;99.90;;;;;;6198162;28;20197;-70
2021/09/08 08:42:42;;;;;;;6.27;4.90;;;20.80;99.90;;;;;;6213355;28;20208;-70
2021/09/08 08:45:46;;;;;;;9.67;5.10;;;21.00;99.90;;;;;;6198434;28;20221;-70
2021/09/08 08:48:49;;;;;;;5.70;5.03;;;21.20;99.90;;;;;;6197118;28;20695;-70
2021/09/08 08:51:52;;;;;;;5.53;4.47;;;21.50;98.60;;;;;;6198572;28;20189;-70
2021/09/08 08:54:54;;;;;;;6.77;5.77;;;21.80;99.10;;;;;;6197791;28;20510;-70
2021/09/08 08:57:58;;;;;;;7.97;5.30;;;22.00;97.50;;;;;;6196591;28;20220;-69
2021/09/08 09:01:21;;;;;;;5.73;4.87;;;22.10;96.70;;;;;;6173520;28;20226;-70
2021/09/08 09:04:24;;;;;;;5.23;4.73;;;22.30;97.50;;;;;;6197219;28;20194;-70
2021/09/08 09:07:29;;;;;;;6.83;5.27;;;22.30;92.70;;;;;;6197623;28;20288;-70
2021/09/08 09:10:31;;;;;;;12.33;5.80;;;22.50;94.40;;;;;;6180774;28;20204;-69
2021/09/08 09:13:35;;;;;;;7.67;5.47;;;22.70;92.00;;;;;;6197645;28;20196;-70
2021/09/08 09:16:41;;;;;;;7.10;4.90;;;22.90;92.20;;;;;;6208824;28;20225;-70
2021/09/08 09:19:50;;;;;;;9.73;5.63;;;23.00;92.80;;;;;;6196361;28;20210;-70
2021/09/08 09:22:59;;;;;;;7.37;5.50;;;23.00;90.90;;;;;;6212166;28;20666;-70
2021/09/08 09:26:05;;;;;;;7.57;5.30;;;23.10;91.30;;;;;;6197440;28;20181;-70
2021/09/08 09:29:16;;;;;;;9.53;6.10;;;23.30;92.40;;;;;;6197283;28;20240;-70
2021/09/08 09:32:19;;;;;;;8.30;6.80;;;23.60;90.30;;;;;;6196258;28;20182;-69
2021/09/08 09:35:23;;;;;;;8.23;5.20;;;23.70;82.90;;;;;;6196950;28;20221;-70
2021/09/08 09:38:27;;;;;;;8.67;5.90;;;23.70;88.90;;;;;;6187472;28;20205;-69
2021/09/08 09:41:32;;;;;;;6.43;5.07;;;23.80;85.20;;;;;;6188980;28;20214;-69
2021/09/08 09:44:35;;;;;;;8.43;5.20;;;24.00;90.00;;;;;;6179469;28;20197;-69
2021/09/08 09:47:43;;;;;;;10.10;6.30;;;24.30;87.20;;;;;;6195613;28;20583;-69
2021/09/08 09:50:47;;;;;;;6.63;5.93;;;24.50;81.90;;;;;;6196764;28;20622;-70
2021/09/08 09:53:49;;;;;;;9.50;6.17;;;24.60;80.30;;;;;;6195601;28;20564;-69
2021/09/08 09:56:55;;;;;;;6.53;5.93;;;24.50;79.40;;;;;;6196614;28;20715;-69
2021/09/08 09:59:58;;;;;;;5.67;5.07;;;24.50;77.60;;;;;;6196769;28;20216;-69
2021/09/08 10:03:02;;;;;;;7.90;5.67;;;24.60;85.00;;;;;;6196265;28;20221;-69
2021/09/08 10:06:05;;;;;;;7.27;5.00;;;24.80;77.20;;;;;;6187007;28;20197;-69
2021/09/08 10:09:12;;;;;;;7.77;5.33;;;24.90;77.60;;;;;;6187308;28;20197;-69
2021/09/08 10:12:18;;;;;;;9.73;4.90;;;25.30;74.80;;;;;;6195128;28;20490;-69
2021/09/08 10:15:22;;;;;;;10.52;5.22;;;25.40;70.30;;;;;;6198175;28;20550;-69
2021/09/08 10:18:26;;;;;;;8.10;5.27;;;25.40;66.60;;;;;;6211292;28;20312;-69
2021/09/08 10:21:28;;;;;;;5.70;4.93;;;25.50;64.80;;;;;;6196014;28;20269;-69
2021/09/08 10:24:31;;;;;;;8.35;4.45;;;25.50;63.30;;;;;;6194682;28;20800;-70
2021/09/08 10:27:33;;;;;;;7.75;4.60;;;25.50;61.80;;;;;;6178757;28;20201;-69
2021/09/08 10:30:36;;;;;;;10.98;4.80;;;25.40;57.80;;;;;;6195671;28;20201;-68
2021/09/08 10:33:42;;;;;;;4.20;3.80;;;25.60;58.00;;;;;;6195849;28;20476;-69
2021/09/08 10:36:46;;;;;;;4.70;3.97;;;25.70;60.00;;;;;;6195869;28;20209;-68
2021/09/08 10:39:48;;;;;;;9.00;4.82;;;26.00;59.10;;;;;;6195884;28;20657;-68
2021/09/08 10:42:57;;;;;;;5.20;4.70;;;26.10;58.20;;;;;;6195589;28;20185;-70
2021/09/08 10:46:01;;;;;;;8.10;4.57;;;26.20;58.30;;;;;;6195563;28;20201;-68
2021/09/08 10:49:04;;;;;;;7.32;4.63;;;26.10;56.50;;;;;;6195793;28;20265;-68
2021/09/08 10:52:08;;;;;;;7.95;4.68;;;26.00;57.50;;;;;;6195373;28;20216;-68
2021/09/08 10:55:20;;;;;;;5.88;4.20;;;26.00;56.90;;;;;;6194383;28;20637;-68
2021/09/08 10:58:22;;;;;;;4.85;4.35;;;26.20;52.70;;;;;;6210131;28;20277;-69
2021/09/08 11:01:26;;;;;;;6.97;4.00;;;26.30;53.30;;;;;;6195212;28;20806;-68
2021/09/08 11:04:28;;;;;;;5.53;3.47;;;26.30;51.60;;;;;;6195416;28;20270;-69
2021/09/08 11:07:31;;;;;;;5.95;4.45;;;26.40;50.20;;;;;;6185897;28;20259;-68
2021/09/08 11:10:34;;;;;;;4.53;4.00;;;26.20;49.40;;;;;;6181981;28;20193;-68
2021/09/08 11:13:38;;;;;;;4.88;4.10;;;26.30;49.40;;;;;;6195211;28;20196;-68
2021/09/08 11:16:43;;;;;;;9.85;4.22;;;26.40;49.20;;;;;;6213340;28;20208;-69
2021/09/08 11:19:59;;;;;;;5.25;3.90;;;26.30;49.40;;;;;;6180234;28;20201;-68
2021/09/08 11:23:09;;;;;;;7.05;3.92;;;26.40;50.90;;;;;;6200174;28;20634;-67
2021/09/08 11:26:12;;;;;;;5.22;3.95;;;26.40;49.60;;;;;;6199094;28;20188;-68
2021/09/08 11:29:15;;;;;;;4.20;3.75;;;26.50;51.40;;;;;;6198976;28;20197;-68
2021/09/08 11:32:17;;;;;;;6.32;3.88;;;26.80;48.90;;;;;;6198932;28;20205;-69
2021/09/08 11:35:45;;;;;;;4.85;4.40;;;26.90;48.10;;;;;;6199762;28;20213;-68
2021/09/08 11:38:56;;;;;;;5.85;4.00;;;26.70;46.60;;;;;;6200098;28;20263;-68
2021/09/08 11:42:02;;;;;;;5.22;3.70;;;26.60;48.10;;;;;;6200080;28;20982;-68
2021/09/08 11:45:09;;;;;;;6.57;4.22;;;26.70;48.10;;;;;;6199771;28;20205;-69
2021/09/08 11:48:12;;;;;;;4.88;3.85;;;26.70;47.00;;;;;;6199722;28;20199;-69
2021/09/08 11:51:17;;;;;;;5.85;4.00;;;26.80;47.10;;;;;;6199634;28;20775;-68
2021/09/08 11:54:24;;;;;;;5.10;3.80;;;26.60;47.20;;;;;;6200007;28;20565;-68
2021/09/08 11:57:26;;;;;;;5.72;4.05;;;26.70;47.30;;;;;;6199455;28;20555;-68
2021/09/08 12:00:29;;;;;;;4.32;3.92;;;26.90;48.00;;;;;;6199490;28;20300;-68
2021/09/08 12:03:32;;;;;;;5.80;3.90;;;27.10;47.60;;;;;;6199282;28;20252;-70
2021/09/08 12:06:55;;;;;;;4.07;3.67;;;27.10;46.70;;;;;;6189835;28;20265;-68
2021/09/08 12:09:57;;;;;;;5.28;4.18;;;27.20;47.20;;;;;;6186317;28;20201;-68
2021/09/08 12:13:00;;;;;;;5.45;3.97;;;27.10;46.20;;;;;;6197868;28;20232;-67
2021/09/08 12:16:02;;;;;;;4.65;3.60;;;27.10;44.70;;;;;;6204404;28;20553;-68
2021/09/08 12:19:14;;;;;;;4.97;4.22;;;27.00;45.90;;;;;;6199194;28;20189;-68
2021/09/08 12:22:24;;;;;;;5.60;4.20;;;27.30;47.10;;;;;;6198946;28;20269;-67
2021/09/08 12:25:26;;;;;;;4.35;3.70;;;27.30;44.50;;;;;;6197932;28;20201;-68
2021/09/08 12:28:29;;;;;;;6.07;3.83;;;27.20;45.90;;;;;;6198620;28;20220;-67
2021/09/08 12:31:31;;;;;;;4.95;3.92;;;27.30;45.40;;;;;;6198277;28;20678;-67
2021/09/08 12:34:45;;;;;;;4.85;4.07;;;27.20;45.40;;;;;;6183849;28;20209;-68
2021/09/08 12:37:47;;;;;;;4.50;4.07;;;27.20;44.50;;;;;;6189116;28;20674;-68
2021/09/08 12:41:08;;;;;;;7.13;4.22;;;27.10;45.10;;;;;;6191122;28;20269;-67
2021/09/08 12:44:11;;;;;;;4.78;3.88;;;27.30;45.30;;;;;;6198218;28;20197;-68
2021/09/08 12:47:16;;;;;;;4.50;3.65;;;27.60;45.30;;;;;;6213234;28;20200;-68
2021/09/08 12:50:18;;;;;;;6.72;3.90;;;27.40;44.50;;;;;;6198539;28;20229;-68
2021/09/08 12:53:20;;;;;;;5.22;3.90;;;27.40;44.70;;;;;;6196884;28;20197;-68
2021/09/08 12:56:23;;;;;;;3.90;3.50;;;27.30;44.60;;;;;;6197540;28;20209;-68
2021/09/08 12:59:27;;;;;;;7.53;3.90;;;27.40;45.40;;;;;;6197095;28;20216;-67
2021/09/08 13:02:29;;;;;;;6.20;3.95;;;27.30;43.90;;;;;;6180733;28;20299;-67
2021/09/08 13:05:34;;;;;;;7.05;3.72;;;27.40;44.30;;;;;;6196747;28;20212;-67
2021/09/08 13:08:36;;;;;;;7.00;3.50;;;27.80;44.30;;;;;;6197810;28;20194;-69
2021/09/08 13:11:39;;;;;;;6.65;3.72;;;28.10;43.70;;;;;;6197734;28;20654;-68
2021/09/08 13:14:41;;;;;;;5.43;3.85;;;28.20;43.40;;;;;;6219585;28;20272;-69
2021/09/08 13:17:43;;;;;;;6.45;3.85;;;28.60;43.90;;;;;;6186845;28;20205;-69
2021/09/08 13:20:47;;;;;;;4.43;4.03;;;29.20;42.00;;;;;;6194154;28;20236;-67
2021/09/08 13:23:49;;;;;;;7.68;3.63;;;29.40;41.80;;;;;;6197774;28;20258;-68
2021/09/08 13:26:51;;;;;;;4.15;3.58;;;29.30;41.70;;;;;;6197323;28;20568;-69
2021/09/08 13:29:54;;;;;;;6.57;3.97;;;29.20;40.60;;;;;;6172333;28;20198;-68
2021/09/08 13:32:57;;;;;;;4.15;3.72;;;29.40;41.10;;;;;;6193527;28;20548;-68
2021/09/08 13:35:59;;;;;;;5.35;4.13;;;29.50;40.60;;;;;;6197425;28;20262;-68
2021/09/08 13:39:05;;;;;;;5.18;3.72;;;29.70;40.30;;;;;;6212448;28;20696;-68
2021/09/08 13:42:08;;;;;;;4.07;3.63;;;30.10;40.40;;;;;;6196712;28;20693;-68
2021/09/08 13:45:10;;;;;;;4.22;3.83;;;30.50;39.90;;;;;;6196960;28;20193;-68
2021/09/08 13:48:13;;;;;;;6.32;4.22;;;30.60;40.10;;;;;;6196862;28;20194;-68
2021/09/08 13:51:16;;;;;;;4.13;3.70;;;30.80;38.60;;;;;;6197162;28;20190;-68
2021/09/08 13:54:18;;;;;;;5.43;3.45;;;31.10;39.20;;;;;;6197528;28;20622;-67
2021/09/08 13:57:21;;;;;;;8.13;4.00;;;31.50;38.00;;;;;;6196602;28;20292;-69
2021/09/08 14:00:23;;;;;;;5.53;3.90;;;31.60;38.30;;;;;;6197910;28;20210;-68
2021/09/08 14:03:25;;;;;;;6.10;4.00;;;32.00;37.40;;;;;;6196352;28;20240;-70
2021/09/08 14:06:28;;;;;;;4.82;3.58;;;32.30;37.30;;;;;;6196547;28;20197;-69
2021/09/08 14:09:31;;;;;;;6.05;3.80;;;32.20;36.70;;;;;;6196647;28;20200;-68
2021/09/08 14:12:33;;;;;;;5.22;4.05;;;31.80;36.70;;;;;;6196447;28;20236;-68
2021/09/08 14:15:36;;;;;;;6.07;3.83;;;31.20;37.70;;;;;;6207460;28;20213;-68
2021/09/08 14:18:39;;;;;;;5.40;3.75;;;30.60;38.10;;;;;;6196820;28;20210;-68
2021/09/08 14:21:41;;;;;;;3.92;3.53;;;29.90;38.80;;;;;;6196544;28;20189;-69
2021/09/08 14:24:44;;;;;;;5.75;3.92;;;29.00;39.40;;;;;;6211299;28;20197;-67
2021/09/08 14:27:46;;;;;;;5.35;3.33;;;28.00;41.40;;;;;;6194773;28;20292;-67
2021/09/08 14:30:49;;;;;;;5.07;3.80;;;27.20;41.90;;;;;;6196164;28;20201;-67
2021/09/08 14:33:51;;;;;;;5.68;4.18;;;26.50;42.20;;;;;;6195840;28;20197;-67
2021/09/08 14:36:53;;;;;;;4.82;3.70;;;26.30;42.30;;;;;;6196029;28;20213;-68
2021/09/08 14:39:56;;;;;;;8.73;3.90;;;26.00;43.60;;;;;;6196141;28;20247;-69
2021/09/08 14:42:59;;;;;;;6.85;3.50;;;25.70;43.20;;;;;;6194870;28;20197;-67
2021/09/08 14:46:01;;;;;;;8.02;3.60;;;26.00;43.00;;;;;;6211294;28;20201;-67
2021/09/08 14:49:04;;;;;;;5.03;3.65;;;26.10;42.70;;;;;;6210739;28;20197;-67
2021/09/08 14:52:07;;;;;;;6.10;3.70;;;25.90;42.80;;;;;;6195756;28;20197;-67
2021/09/08 14:55:11;;;;;;;6.40;3.50;;;25.60;43.50;;;;;;6210067;28;20298;-68
2021/09/08 14:58:14;;;;;;;3.97;3.43;;;25.20;43.20;;;;;;6194383;28;20279;-68
2021/09/08 15:01:16;;;;;;;6.72;3.60;;;24.90;43.50;;;;;;6195356;28;20245;-68
2021/09/08 15:04:19;;;;;;;5.87;4.00;;;24.60;43.90;;;;;;6194402;28;20629;-68
2021/09/08 15:07:22;;;;;;;4.43;3.37;;;24.60;44.30;;;;;;6195599;28;20543;-68
2021/09/08 15:10:24;;;;;;;4.67;3.30;;;24.60;44.20;;;;;;6194395;28;20197;-67
2021/09/08 15:13:27;;;;;;;4.17;3.70;;;24.60;44.60;;;;;;6194208;28;20285;-68
2021/09/08 15:16:29;;;;;;;5.90;3.40;;;24.40;45.40;;;;;;6195438;28;20225;-67
2021/09/08 15:19:32;;;;;;;4.50;3.30;;;24.20;45.70;;;;;;6193990;28;20708;-67
2021/09/08 15:22:34;;;;;;;4.67;3.57;;;24.00;46.10;;;;;;6193997;28;20563;-67
2021/09/08 15:25:36;;;;;;;6.17;3.10;;;23.80;46.00;;;;;;6195630;28;20204;-67
2021/09/08 15:28:39;;;;;;;5.97;3.90;;;23.70;46.30;;;;;;6195490;28;20739;-68
2021/09/08 15:31:41;;;;;;;6.50;3.47;;;23.60;46.50;;;;;;6195108;28;20267;-68
2021/09/08 15:34:45;;;;;;;5.00;3.67;;;23.40;46.40;;;;;;6177603;28;20202;-66
2021/09/08 15:37:47;;;;;;;4.97;3.53;;;23.30;46.50;;;;;;6195202;28;20217;-67
2021/09/08 15:40:50;;;;;;;6.30;3.53;;;23.30;47.10;;;;;;6194983;28;20204;-67
2021/09/08 15:43:52;;;;;;;4.87;3.87;;;23.20;46.80;;;;;;6210401;28;20317;-67
2021/09/08 15:46:54;;;;;;;3.90;3.33;;;23.10;46.90;;;;;;6194928;28;20197;-67
2021/09/08 15:49:56;;;;;;;3.77;3.37;;;23.00;46.90;;;;;;6194934;28;20406;-69
2021/09/08 15:53:16;;;;;;;3.27;2.97;;;22.90;47.50;;;;;;6209828;28;20312;-66
2021/09/08 15:56:18;;;;;;;4.93;3.70;;;22.80;48.30;;;;;;6194903;28;20853;-67